Stations météo

réclame
Mon MeteoGroup
Glen Ogle, Grande-Bretagne (3148): Température de l'air & dewpoint: 11.02.2019 12:00:00 - 17.02.2019 12:00:00 (GMT)Glen Ogle, Grande-Bretagne (3148): Vitesse du vent & gusts: 11.02.2019 12:00:00 - 17.02.2019 12:00:00 (GMT)Glen Ogle, Grande-Bretagne (3148): Direction du vent: 11.02.2019 12:00:00 - 17.02.2019 12:00:00 (GMT)
Date & Time tt [°C] td [°C] ff [km/h] ff [knt] fx [km/h] fx [knt] dd
17.02.2019 12:00:00 5,2 5,2 52 28 83 45 S
17.02.2019 11:00:00 5,2 5,2 54 29 83 45 S
17.02.2019 10:00:00 5,2 4,7 52 28 76 41 S
17.02.2019 09:00:00 5,3 4,6 61 33 83 45 S
17.02.2019 08:00:00 5,6 5,0 65 35 83 45 S
17.02.2019 07:00:00 5,7 5,5 57 31 89 48 S
17.02.2019 06:00:00 6,0 6,0 63 34 87 47 S
17.02.2019 05:00:00 6,0 5,9 61 33 111 60 S
17.02.2019 04:00:00 6,2 6,2 65 35 94 51 S
17.02.2019 03:00:00 6,2 6,2 52 28 78 42 S
17.02.2019 02:00:00 6,4 6,4 44 24 83 45 S
17.02.2019 01:00:00 6,6 6,6 50 27 74 40 S
17.02.2019 00:00:00 6,0 6,0 39 21 67 36 S
16.02.2019 23:00:00 5,6 5,6 46 25 67 36 S
16.02.2019 22:00:00 5,0 4,8 37 20 61 33 S
16.02.2019 21:00:00 4,8 4,2 22 12 59 32 S
16.02.2019 20:00:00 4,6 4,3 35 19 65 35 S
16.02.2019 19:00:00 4,8 4,1 39 21 57 31 S
16.02.2019 18:00:00 4,4 4,2 29 16 54 29 S
16.02.2019 17:00:00 4,5 3,8 31 17 59 32 S
16.02.2019 16:00:00 4,3 3,2 28 15 67 36 S
16.02.2019 15:00:00 4,3 2,9 35 19 54 29 S
16.02.2019 14:00:00 4,1 3,3 34 18 61 33 SSW
16.02.2019 13:00:00 4,1 3,7 39 21 57 31 SSW
16.02.2019 12:00:00 4,5 3,4 29 16 46 25 SW
16.02.2019 11:00:00 4,4 3,7 22 12 50 27 SSW
16.02.2019 10:00:00 4,4 4,4 35 19 52 28 S
16.02.2019 09:00:00 4,6 4,6 34 18 - - S
16.02.2019 08:00:00 4,8 4,7 26 14 - - S
16.02.2019 07:00:00 4,6 4,6 24 13 46 25 S
16.02.2019 06:00:00 4,9 4,9 28 15 - - S
16.02.2019 05:00:00 5,1 4,7 29 16 48 26 SSW
16.02.2019 04:00:00 5,7 4,8 26 14 - - SW
16.02.2019 03:00:00 6,5 4,1 34 18 61 33 SW
16.02.2019 02:00:00 6,6 4,8 37 20 74 40 SSW
16.02.2019 01:00:00 6,2 6,2 44 24 74 40 SSW
16.02.2019 00:00:00 6,3 6,2 42 23 76 41 S
15.02.2019 23:00:00 6,0 6,0 44 24 63 34 SSW
15.02.2019 22:00:00 5,5 5,5 48 26 68 37 S
15.02.2019 21:00:00 5,2 5,2 48 26 67 36 S
15.02.2019 20:00:00 4,8 4,8 41 22 76 41 S
15.02.2019 19:00:00 5,1 5,0 57 31 80 43 S
15.02.2019 18:00:00 5,4 4,8 44 24 67 36 S
15.02.2019 17:00:00 5,7 4,3 39 21 85 46 S
15.02.2019 16:00:00 6,5 3,7 59 32 87 47 S
15.02.2019 15:00:00 6,5 3,4 48 26 80 43 SSW
15.02.2019 14:00:00 5,8 1,4 26 14 50 27 SSW
15.02.2019 13:00:00 5,4 0,8 28 15 54 29 S
15.02.2019 12:00:00 5,2 -0,6 21 11 50 27 SSW
15.02.2019 11:00:00 4,0 -1,6 34 18 50 27 S
15.02.2019 10:00:00 3,9 -3,3 29 16 55 30 S
15.02.2019 09:00:00 3,4 -1,8 29 16 65 35 S
15.02.2019 08:00:00 3,8 -1,8 37 20 70 38 S
15.02.2019 07:00:00 4,0 -2,4 39 21 55 30 S
15.02.2019 06:00:00 4,2 -2,9 16 9 - - SSW
15.02.2019 05:00:00 4,3 -1,9 13 7 - - S
15.02.2019 04:00:00 3,7 -1,9 5 3 57 31 WNW
15.02.2019 03:00:00 5,0 -4,9 22 12 48 26 S
15.02.2019 02:00:00 5,3 -5,3 24 13 67 36 S
15.02.2019 01:00:00 6,0 -5,8 22 12 65 35 SSW
15.02.2019 00:00:00 5,8 -4,0 29 16 54 29 S
14.02.2019 23:00:00 5,7 -1,8 21 11 65 35 SSE
14.02.2019 22:00:00 6,2 -0,2 34 18 46 25 S
14.02.2019 21:00:00 4,5 3,2 22 12 46 25 SSE
14.02.2019 20:00:00 4,5 3,3 28 15 - - SSE
14.02.2019 19:00:00 4,7 3,2 22 12 - - S
14.02.2019 18:00:00 4,4 3,7 22 12 - - SSE
14.02.2019 17:00:00 4,5 3,9 28 15 46 25 S
14.02.2019 16:00:00 4,6 4,0 22 12 46 25 S
14.02.2019 15:00:00 4,6 4,6 26 14 50 27 S
14.02.2019 14:00:00 4,6 4,6 13 7 48 26 SSE
14.02.2019 13:00:00 4,6 4,6 35 19 55 30 S
14.02.2019 12:00:00 4,6 4,6 42 23 63 34 S
14.02.2019 11:00:00 4,6 4,6 42 23 65 35 SSE
14.02.2019 10:00:00 4,7 4,7 37 20 65 35 S
14.02.2019 09:00:00 4,7 4,7 44 24 68 37 S
14.02.2019 08:00:00 4,8 4,8 39 21 59 32 S
14.02.2019 07:00:00 4,9 4,9 41 22 57 31 S
14.02.2019 06:00:00 4,9 4,9 44 24 59 32 S
14.02.2019 05:00:00 4,9 4,9 39 21 63 34 S
14.02.2019 04:00:00 4,9 4,9 42 23 63 34 S
14.02.2019 03:00:00 4,9 4,9 39 21 67 36 SSW
14.02.2019 02:00:00 4,9 4,9 46 25 70 38 SSW
14.02.2019 01:00:00 4,8 4,8 48 26 72 39 S
14.02.2019 00:00:00 4,9 4,9 48 26 70 38 S
13.02.2019 23:00:00 5,0 4,9 41 22 61 33 S
13.02.2019 22:00:00 4,9 4,9 34 18 63 34 S
13.02.2019 21:00:00 5,1 5,1 41 22 67 36 SSW
13.02.2019 20:00:00 5,1 5,1 37 20 76 41 SSW
13.02.2019 19:00:00 5,0 5,0 28 15 61 33 S
13.02.2019 18:00:00 5,0 5,0 29 16 61 33 SSW
13.02.2019 17:00:00 5,1 5,1 42 23 68 37 SSW
13.02.2019 16:00:00 5,2 5,2 37 20 55 30 S
13.02.2019 15:00:00 5,5 5,5 31 17 55 30 SSW
13.02.2019 14:00:00 5,4 5,4 35 19 57 31 SSW
13.02.2019 13:00:00 5,5 5,5 42 23 59 32 SSW
13.02.2019 12:00:00 5,5 5,5 37 20 68 37 SSW
13.02.2019 11:00:00 5,8 5,6 37 20 61 33 SSW
13.02.2019 10:00:00 5,6 5,6 37 20 68 37 SSW
13.02.2019 09:00:00 5,6 5,6 41 22 63 34 SSW
13.02.2019 08:00:00 5,7 5,7 41 22 65 35 SSW
13.02.2019 07:00:00 5,5 5,5 39 21 67 36 SSW
13.02.2019 06:00:00 5,8 5,8 37 20 59 32 S
13.02.2019 05:00:00 5,9 5,9 37 20 55 30 S
13.02.2019 04:00:00 5,8 5,8 48 26 59 32 S
13.02.2019 03:00:00 5,9 5,9 37 20 54 29 S
13.02.2019 02:00:00 5,6 5,0 26 14 - - S
13.02.2019 01:00:00 5,1 3,4 28 15 - - S
13.02.2019 00:00:00 5,4 0,6 18 10 46 25 S
12.02.2019 23:00:00 5,7 1,9 13 7 46 25 W
12.02.2019 22:00:00 5,3 3,2 37 20 70 38 W
12.02.2019 21:00:00 5,4 3,2 52 28 76 41 W
12.02.2019 20:00:00 5,8 4,2 42 23 55 30 W
12.02.2019 19:00:00 5,6 3,8 28 15 65 35 WSW
12.02.2019 18:00:00 6,4 3,9 39 21 61 33 WSW
12.02.2019 17:00:00 6,6 4,0 39 21 68 37 SW
12.02.2019 16:00:00 7,4 3,7 50 27 87 47 WSW
12.02.2019 15:00:00 7,3 5,1 55 30 76 41 WSW
12.02.2019 14:00:00 6,7 6,3 26 14 55 30 SW
12.02.2019 13:00:00 6,3 6,0 31 17 65 35 SSW
12.02.2019 12:00:00 5,3 5,3 41 22 68 37 S
12.02.2019 11:00:00 5,2 5,1 35 19 68 37 S
12.02.2019 10:00:00 5,8 5,0 48 26 70 38 SSW
12.02.2019 09:00:00 6,2 4,5 50 27 74 40 SW
12.02.2019 08:00:00 5,1 4,9 37 20 65 35 SW
12.02.2019 07:00:00 4,4 4,4 37 20 59 32 SSW
12.02.2019 06:00:00 3,8 3,8 39 21 68 37 SSW
12.02.2019 05:00:00 3,7 3,7 42 23 67 36 S
12.02.2019 04:00:00 3,4 3,4 35 19 55 30 S
12.02.2019 03:00:00 3,4 3,4 31 17 52 28 S
12.02.2019 02:00:00 3,2 3,2 29 16 50 27 SSW
12.02.2019 01:00:00 2,9 2,9 22 12 55 30 SSW
12.02.2019 00:00:00 2,4 2,4 31 17 - - S
11.02.2019 23:00:00 2,5 2,0 31 17 50 27 SSW
11.02.2019 22:00:00 2,2 1,3 26 14 - - SSW
11.02.2019 21:00:00 2,2 0,2 18 10 - - WSW
11.02.2019 20:00:00 2,4 -0,6 16 9 - - SSW
11.02.2019 19:00:00 1,8 -1,0 13 7 - - SSW
11.02.2019 18:00:00 0,8 -1,2 11 6 - - W
11.02.2019 17:00:00 1,6 -2,6 11 6 - - WSW
11.02.2019 16:00:00 1,7 -4,2 8 4 - - SW
11.02.2019 15:00:00 1,4 -5,1 21 11 - - W
11.02.2019 14:00:00 1,3 -5,1 22 12 - - W
11.02.2019 13:00:00 1,6 -4,9 18 10 - - W
11.02.2019 12:00:00 0,9 -7,1 8 4 - - WNW

tt = Température de l'air
td = dewpoint
ff = Vitesse du vent
fx = gusts
dd = Direction du vent

stations d'obs. à proximité